Flight Track Log - Related Links

Times and Time Zones

All times are in EDT time to prevent confusion due to time zone crossing. See the UAL326 flight status page for this flight to view local times or setup timezone preferences in your user account.


Time Position Orientation Groundspeed Altitude Reporting Facility
EDT Latitude Longitude Course Direction KTS MPH feet Rate Location/Type
Fri 06:03:23 PM 38.9167 -77.4333 303° West 185 213 1,300  Level Potomac TRACON
Fri 06:04:23 PM 38.8667 -77.5000 226° Southwest 243 280 3,400 2,300 Climbing Potomac TRACON
Fri 06:05:23 PM 38.8167 -77.5500 218° Southwest 261 300 5,900 2,600 Climbing Potomac TRACON
Fri 06:06:00 PM 38.8700 -77.8904 261° West  Level FlightAware Approximate
Fri 06:06:23 PM 38.7833 -77.6333 243° Southwest 281 323 8,600  Level Potomac TRACON
Fri 06:07:00 PM 38.9006 -78.0357 288° West  Level FlightAware Approximate
Fri 06:07:04 PM 38.7742 -77.6925 259° West 290 334 10,000  Level Washington Center
Fri 06:08:00 PM 38.9401 -78.1802 303° West  Level FlightAware Approximate
Fri 06:08:05 PM 38.8058 -77.7867 293° West 280 322 11,800  Level Washington Center
Fri 06:09:06 PM 38.8453 -77.8997 294° West 323 372 12,900 1,513 Climbing Washington Center
Fri 06:10:04 PM 38.8950 -78.0319 296° West 353 406 14,800 1,932 Climbing Washington Center
Fri 06:11:04 PM 38.9422 -78.1617 295° West 380 437 16,700 1,736 Climbing Washington Center
Fri 06:12:05 PM 38.9683 -78.3042 283° West 396 456 18,300 1,636 Climbing Washington Center
Fri 06:13:05 PM 38.9711 -78.4564 271° West 417 480 20,000 1,550 Climbing Washington Center
Fri 06:14:05 PM 38.9756 -78.6117 272° West 429 494 21,400 1,627 Climbing Washington Center
Fri 06:15:03 PM 38.9778 -78.7639 271° West 434 499 23,200 1,627 Climbing Washington Center
Fri 06:16:03 PM 38.9819 -78.9217 272° West 439 505 24,600 1,289 Climbing Washington Center
Fri 06:17:04 PM 38.9881 -79.0767 273° West 439 505 25,800 1,140 Climbing Washington Center
Fri 06:18:04 PM 38.9894 -79.2397 271° West 445 512 26,900 1,041 Climbing Washington Center
Fri 06:19:05 PM 38.9908 -79.4000 271° West 450 518 27,900 1,190 Climbing Washington Center
Fri 06:20:05 PM 38.9981 -79.5633 273° West 456 525 29,300 1,220 Climbing Washington Center
Fri 06:21:03 PM 38.9992 -79.7131 271° West 471 542 30,300 1,109 Climbing Washington Center
Fri 06:22:04 PM 39.0033 -79.8922 272° West 465 535 31,500 1,069 Climbing Washington Center
Fri 06:24:25 PM 39.0061 -80.2581 271° West 442 509 33,900 739 Climbing Indianapolis Center
Fri 06:25:27 PM 39.0075 -80.4128 271° West 436 502 34,000 48 Climbing Indianapolis Center
Fri 06:26:29 PM 39.0094 -80.5678 271° West 433 498 34,000  Level Indianapolis Center
Fri 06:27:31 PM 39.0119 -80.7239 271° West 438 504 34,000  Level Indianapolis Center
Fri 06:28:33 PM 39.0378 -80.8753 282° West 443 510 34,000  Level Indianapolis Center
Fri 06:29:35 PM 39.1075 -81.0408 299° West 442 509 34,000  Level Indianapolis Center
Fri 06:30:37 PM 39.1656 -81.1803 298° West 444 511 34,000  Level Indianapolis Center
Fri 06:31:39 PM 39.2231 -81.3200 298° West 444 511 34,000  Level Indianapolis Center
Fri 06:32:41 PM 39.2797 -81.4594 298° West 442 509 34,000  Level Indianapolis Center
Fri 06:33:43 PM 39.3358 -81.5994 297° West 442 509 34,000  Level Indianapolis Center
Fri 06:34:44 PM 39.3931 -81.7400 298° West 443 510 34,000  Level Indianapolis Center
Fri 06:35:46 PM 39.4614 -81.9086 298° West 442 509 34,000  Level Indianapolis Center
Fri 06:36:48 PM 39.5167 -82.0506 297° West 444 511 34,000  Level Indianapolis Center
Fri 06:37:50 PM 39.5731 -82.1922 297° West 442 509 34,000  Level Indianapolis Center
Fri 06:38:52 PM 39.6303 -82.3347 298° West 441 507 34,000  Level Indianapolis Center
Fri 06:39:54 PM 39.6872 -82.4781 297° West 444 511 34,000  Level Indianapolis Center
Fri 06:40:56 PM 39.7436 -82.6219 297° West 444 511 34,000  Level Indianapolis Center
Fri 06:41:58 PM 39.8000 -82.7650 297° West 444 511 34,000  Level Indianapolis Center
Fri 06:43:00 PM 39.8661 -82.9336 297° West 447 514 34,000  Level Indianapolis Center
Fri 06:44:02 PM 39.9219 -83.0786 297° West 446 513 34,000 -48 Level Indianapolis Center
Fri 06:45:04 PM 39.9778 -83.2228 297° West 446 513 33,900  Descending Indianapolis Center
Fri 06:46:06 PM 40.0331 -83.3672 297° West 447 514 34,000 48 Climbing Indianapolis Center
Fri 06:47:08 PM 40.0878 -83.5114 296° West 447 514 34,000 -48 Level Indianapolis Center
Fri 06:48:10 PM 40.1519 -83.6808 296° West 447 514 33,900  Descending Indianapolis Center
Fri 06:49:11 PM 40.2078 -83.8267 297° West 446 513 34,000 49 Climbing Indianapolis Center
Fri 06:50:13 PM 40.2633 -83.9739 296° West 449 517 34,000  Level Indianapolis Center
Fri 06:51:15 PM 40.3186 -84.1206 296° West 447 514 34,000 -48 Level Indianapolis Center
Fri 06:52:17 PM 40.3736 -84.2689 296° West 449 517 33,900  Descending Indianapolis Center
Fri 06:53:19 PM 40.4289 -84.4161 296° West 446 513 34,000 48 Climbing Indianapolis Center
Fri 06:54:21 PM 40.4839 -84.5644 296° West 447 514 34,000  Level Indianapolis Center
Fri 06:55:23 PM 40.5647 -84.7250 304° West 449 517 34,000  Level Indianapolis Center
Fri 06:56:25 PM 40.6494 -84.8511 312° West 456 525 34,000  Level Indianapolis Center
Fri 06:57:27 PM 40.7208 -84.9917 304° West 449 517 34,000  Level Indianapolis Center
Fri 06:58:23 PM 40.7692 -85.1175 297° West 449 517 34,000  Level Chicago Center
Fri 06:59:25 PM 40.8278 -85.2639 298° West 449 517 34,000  Level Chicago Center
Fri 07:00:27 PM 40.8850 -85.4128 297° West 454 522 34,000  Level Chicago Center
Fri 07:01:29 PM 40.9417 -85.5608 297° West 452 520 34,000  Level Chicago Center
Fri 07:02:32 PM 41.0100 -85.7403 297° West 453 521 34,000  Level Chicago Center
Fri 07:03:34 PM 41.0656 -85.8903 296° West 454 522 34,000  Level Chicago Center
Fri 07:04:36 PM 41.1272 -86.0372 299° West 455 524 34,000  Level Chicago Center
Fri 07:05:38 PM 41.2197 -86.1572 316° Northwest 463 533 34,000  Level Chicago Center
Fri 07:06:40 PM 41.3153 -86.2722 318° Northwest 462 532 34,000  Level Chicago Center
Fri 07:07:42 PM 41.4036 -86.3972 313° West 463 533 34,000  Level Chicago Center
Fri 07:08:44 PM 41.4719 -86.5375 303° West 456 525 34,000  Level Chicago Center
Fri 07:09:46 PM 41.5392 -86.7178 297° West 455 524 34,000  Level Chicago Center
Fri 07:10:48 PM 41.5964 -86.8731 296° West 453 521 34,000  Level Chicago Center
Fri 07:11:50 PM 41.6497 -87.0236 295° West 452 520 34,000  Level Chicago Center
Fri 07:12:53 PM 41.7044 -87.1736 296° West 454 522 34,000  Level Chicago Center
Fri 07:13:55 PM 41.7578 -87.3219 296° West 449 517 34,000  Level Chicago Center
Fri 07:14:57 PM 41.8225 -87.5022 296° West 452 520 34,000  Level Chicago Center
Fri 07:15:59 PM 41.8772 -87.6542 296° West 456 525 34,000  Level Chicago Center
Fri 07:17:01 PM 41.9303 -87.8056 295° West 456 525 34,000  Level Chicago Center
Fri 07:18:03 PM 41.9842 -87.9583 295° West 458 527 34,000  Level Chicago Center
Fri 07:19:05 PM 42.0369 -88.1119 295° West 459 528 34,000  Level Chicago Center
Fri 07:20:07 PM 42.1011 -88.2967 295° West 458 527 34,000  Level Chicago Center
Fri 07:21:09 PM 42.1536 -88.4519 295° West 459 528 34,000  Level Chicago Center
Fri 07:22:11 PM 42.2069 -88.6039 295° West 455 524 34,000  Level Chicago Center
Fri 07:23:13 PM 42.2594 -88.7581 295° West 456 525 34,000  Level Chicago Center
Fri 07:24:16 PM 42.3189 -88.9356 294° West 461 531 34,000  Level Chicago Center
Fri 07:25:18 PM 42.3717 -89.0964 294° West 463 533 34,000  Level Chicago Center
Fri 07:26:20 PM 42.4244 -89.2542 294° West 459 528 34,000  Level Chicago Center
Fri 07:27:22 PM 42.4769 -89.4117 294° West 457 526 34,000  Level Chicago Center
Fri 07:28:24 PM 42.5364 -89.5931 294° West 452 520 34,000  Level Chicago Center
Fri 07:29:26 PM 42.5881 -89.7511 294° West 455 524 34,000  Level Chicago Center
Fri 07:30:28 PM 42.6406 -89.9139 294° West 455 524 34,000  Level Chicago Center
Fri 07:31:30 PM 42.6933 -90.0711 295° West 460 529 34,000  Level Chicago Center
Fri 07:32:32 PM 42.7439 -90.2253 294° West 454 522 34,000  Level Chicago Center
Fri 07:33:34 PM 42.7914 -90.3769 293° West 445 512 34,000  Level Chicago Center
Fri 07:34:36 PM 42.8506 -90.5606 294° West 445 512 34,000 432 Level Chicago Center
Fri 07:35:39 PM 42.8972 -90.7144 293° West 445 512 34,900 912 Climbing Chicago Center
Fri 07:36:41 PM 42.9461 -90.8692 293° West 443 510 35,900 641 Climbing Chicago Center
Fri 07:37:22 PM 42.9739 -90.9561 294° West 442 509 36,000 58 Climbing Minneapolis Center
Fri 07:38:24 PM 43.0294 -91.1336 293° West 434 499 36,000  Level Minneapolis Center
Fri 07:39:26 PM 43.0758 -91.2836 293° West 435 501 36,000  Level Minneapolis Center
Fri 07:40:28 PM 43.1225 -91.4331 293° West 435 501 36,000  Level Minneapolis Center
Fri 07:41:30 PM 43.1689 -91.5833 293° West 436 502 36,000  Level Minneapolis Center
Fri 07:42:32 PM 43.2219 -91.7650 292° West 435 501 36,000  Level Minneapolis Center
Fri 07:43:34 PM 43.2692 -91.9186 293° West 439 505 36,000  Level Minneapolis Center
Fri 07:44:36 PM 43.3150 -92.0739 292° West 443 510 36,000  Level Minneapolis Center
Fri 07:45:50 PM 43.3617 -92.2261 293° West 441 507 36,000  Level Minneapolis Center
Fri 07:46:53 PM 43.4247 -92.4431 292° West 443 510 36,000  Level Minneapolis Center
Fri 07:47:55 PM 43.4697 -92.6000 292° West 448 516 36,000  Level Minneapolis Center
Fri 07:48:57 PM 43.5156 -92.7553 292° West 445 512 36,000  Level Minneapolis Center
Fri 07:50:11 PM 43.5589 -92.9125 291° West 444 511 36,000  Level Minneapolis Center
Fri 07:51:13 PM 43.6625 -93.1003 307° West 442 509 36,000  Level Minneapolis Center
Fri 07:52:15 PM 43.7300 -93.2125 310° West 439 505 36,000  Level Minneapolis Center
Fri 07:53:17 PM 43.8233 -93.3700 309° West 441 507 36,000  Level Minneapolis Center
Fri 07:54:19 PM 43.9025 -93.5000 310° West 442 509 36,000  Level Minneapolis Center
Fri 07:55:21 PM 43.9806 -93.6300 310° West 439 505 36,000  Level Minneapolis Center
Fri 07:56:23 PM 44.0367 -93.7394 306° West 436 502 36,000  Level Minneapolis Center
Fri 07:57:26 PM 44.1061 -93.9167 299° West 434 499 36,000  Level Minneapolis Center
Fri 07:58:28 PM 44.1522 -94.0717 293° West 433 498 36,000  Level Minneapolis Center
Fri 07:59:30 PM 44.2011 -94.2578 290° West 428 493 36,000  Level Minneapolis Center
Fri 08:00:35 PM 44.2414 -94.4158 290° West 430 495 36,000  Level Minneapolis Center
Fri 08:01:37 PM 44.2817 -94.5719 290° West 430 495 36,000  Level Minneapolis Center
Fri 08:03:41 PM 44.3633 -94.8872 290° West 428 493 36,000  Level Minneapolis Center
Fri 08:04:43 PM 44.4103 -95.0750 289° West 429 494 36,000  Level Minneapolis Center
Fri 08:05:45 PM 44.4494 -95.2314 289° West 429 494 36,000  Level Minneapolis Center
Fri 08:06:47 PM 44.4886 -95.3883 289° West 430 495 36,000  Level Minneapolis Center
Fri 08:07:49 PM 44.5269 -95.5481 289° West 434 499 36,000  Level Minneapolis Center
Fri 08:08:51 PM 44.5672 -95.7072 290° West 436 502 36,000  Level Minneapolis Center
Fri 08:09:53 PM 44.6147 -95.9008 289° West 440 506 36,000  Level Minneapolis Center
Fri 08:10:55 PM 44.6522 -96.0617 288° West 440 506 36,000  Level Minneapolis Center
Fri 08:11:57 PM 44.6892 -96.2208 288° West 436 502 36,000  Level Minneapolis Center
Fri 08:12:59 PM 44.7267 -96.3794 288° West 433 498 36,000  Level Minneapolis Center
Fri 08:14:01 PM 44.7644 -96.5381 289° West 431 496 36,000  Level Minneapolis Center
Fri 08:15:03 PM 44.8100 -96.7303 289° West 435 501 36,000  Level Minneapolis Center
Fri 08:16:04 PM 44.8467 -96.8894 288° West 432 497 36,000  Level Minneapolis Center
Fri 08:17:06 PM 44.8850 -97.0511 289° West 437 503 36,000  Level Minneapolis Center
Fri 08:18:08 PM 44.9211 -97.2128 288° West 437 503 36,000  Level Minneapolis Center
Fri 08:19:10 PM 44.9581 -97.3747 288° West 437 503 36,000  Level Minneapolis Center
Fri 08:20:12 PM 44.9961 -97.5356 289° West 435 501 36,000  Level Minneapolis Center
Fri 08:21:14 PM 45.0375 -97.7306 287° West 433 498 36,000  Level Minneapolis Center
Fri 08:22:15 PM 45.0656 -97.8594 287° West 433 498 36,000  Level Minneapolis Center
Fri 08:23:17 PM 45.1081 -98.0508 288° West 428 493 36,000  Level Minneapolis Center
Fri 08:24:19 PM 45.1461 -98.2261 287° West 426 490 36,000  Level Minneapolis Center
Fri 08:25:21 PM 45.1811 -98.3864 287° West 426 490 36,000  Level Minneapolis Center
Fri 08:26:23 PM 45.2161 -98.5483 287° West 429 494 36,000  Level Minneapolis Center
Fri 08:27:25 PM 45.2511 -98.7103 287° West 432 497 36,000  Level Minneapolis Center
Fri 08:28:27 PM 45.2856 -98.8722 287° West 430 495 36,000  Level Minneapolis Center
Fri 08:29:28 PM 45.3200 -99.0333 287° West 429 494 36,000  Level Minneapolis Center
Fri 08:30:30 PM 45.3603 -99.2236 287° West 423 487 36,000  Level Minneapolis Center
Fri 08:31:32 PM 45.3933 -99.3850 286° West 427 491 36,000  Level Minneapolis Center
Fri 08:32:34 PM 45.4264 -99.5433 287° West 424 488 36,000  Level Minneapolis Center
Fri 08:33:48 PM 45.4581 -99.7042 286° West 425 489 36,000  Level Minneapolis Center
Fri 08:34:50 PM 45.4969 -99.8975 286° West 426 490 36,000  Level Minneapolis Center
Fri 08:35:52 PM 45.5278 -100.0578 285° West 424 488 36,000  Level Minneapolis Center
Fri 08:36:54 PM 45.5658 -100.2506 286° West 424 488 36,000  Level Minneapolis Center
Fri 08:37:56 PM 45.5969 -100.4103 286° West 422 486 36,000  Level Minneapolis Center
Fri 08:38:58 PM 45.6267 -100.5664 285° West 415 478 36,000  Level Minneapolis Center
Fri 08:40:00 PM 45.6572 -100.7206 286° West 408 470 36,000  Level Minneapolis Center
Fri 08:41:01 PM 45.6844 -100.8761 284° West 406 467 36,000  Level Minneapolis Center
Fri 08:42:03 PM 45.7139 -101.0314 285° West 406 467 36,000  Level Minneapolis Center
Fri 08:43:05 PM 45.7436 -101.2186 283° West 404 465 36,000  Level Minneapolis Center
Fri 08:44:07 PM 45.7489 -101.3786 273° West 402 463 36,000  Level Minneapolis Center
Fri 08:45:09 PM 45.7483 -101.5361 270° West 399 459 36,000  Level Minneapolis Center
Fri 08:46:11 PM 45.7394 -101.6908 265° West 393 452 36,000  Level Minneapolis Center
Fri 08:47:13 PM 45.7286 -101.8456 264° West 392 451 36,000  Level Minneapolis Center
Fri 08:48:15 PM 45.7197 -102.0033 265° West 396 456 36,000  Level Minneapolis Center
Fri 08:49:17 PM 45.7108 -102.1947 266° West 401 461 36,000  Level Minneapolis Center
Fri 08:50:19 PM 45.7064 -102.3567 268° West 406 467 36,000  Level Minneapolis Center
Fri 08:51:21 PM 45.7056 -102.5172 270° West 406 467 36,000 -48 Level Minneapolis Center
Fri 08:52:23 PM 45.7106 -102.6675 273° West 409 471 35,900  Descending Minneapolis Center
Fri 08:53:25 PM 45.7181 -102.8297 274° West 410 472 36,000  Climbing Minneapolis Center
Fri 08:54:27 PM 45.7439 -103.0253 281° West 416 479 35,900  Descending Minneapolis Center
Fri 08:55:29 PM 45.7925 -103.1786 294° West 424 488 36,000  Climbing Minneapolis Center
Fri 08:56:31 PM 45.8683 -103.3228 307° West 447 514 35,900 -48 Descending Minneapolis Center
Fri 08:57:33 PM 45.9450 -103.4642 308° West 450 518 35,900  Level Minneapolis Center
Fri 08:58:34 PM 46.0075 -103.5794 308° West 454 522 35,900  Level Minneapolis Center
Fri 08:59:36 PM 46.1014 -103.7503 308° West 455 524 35,900  Level Minneapolis Center
Fri 09:00:38 PM 46.1817 -103.9319 303° West 448 516 35,900  Level Minneapolis Center
Fri 09:01:49 PM 46.2169 -104.0956 287° West 435 501 35,900 45 Level Salt Lake Center
Fri 09:02:51 PM 46.2467 -104.2925 282° West 422 486 36,000 49 Climbing Salt Lake Center
Fri 09:03:52 PM 46.2725 -104.4561 283° West 421 484 36,000 -49 Level Salt Lake Center
Fri 09:04:54 PM 46.2986 -104.6225 283° West 421 484 35,900  Descending Salt Lake Center
Fri 09:05:56 PM 46.3247 -104.7908 283° West 425 489 36,000 49 Climbing Salt Lake Center
Fri 09:06:57 PM 46.3492 -104.9594 282° West 423 487 36,000  Level Salt Lake Center
Fri 09:07:59 PM 46.3781 -105.1489 283° West 428 493 36,000 98 Level Salt Lake Center
Fri 09:09:00 PM 46.4025 -105.3114 282° West 429 494 36,200 683 Climbing Salt Lake Center
Fri 09:10:02 PM 46.4267 -105.4722 282° West 429 494 37,400 871 Climbing Salt Lake Center
Fri 09:11:04 PM 46.4542 -105.6556 282° West 425 489 38,000 293 Climbing Salt Lake Center
Fri 09:12:05 PM 46.4772 -105.8142 282° West 421 484 38,000  Level Salt Lake Center
Fri 09:13:07 PM 46.5050 -106.0014 282° West 424 488 38,000  Level Salt Lake Center
Fri 09:14:08 PM 46.5289 -106.1631 282° West 427 491 38,000  Level Salt Lake Center
Fri 09:15:10 PM 46.5553 -106.3522 282° West 428 493 38,000  Level Salt Lake Center
Fri 09:16:11 PM 46.5800 -106.5197 282° West 436 502 38,000  Level Salt Lake Center
Fri 09:17:13 PM 46.6025 -106.6864 281° West 439 505 38,000  Level Salt Lake Center
Fri 09:18:14 PM 46.6292 -106.8789 281° West 437 503 38,000  Level Salt Lake Center
Fri 09:19:16 PM 46.6511 -107.0417 281° West 431 496 38,000  Level Salt Lake Center
Fri 09:20:17 PM 46.6767 -107.2311 281° West 428 493 38,000  Level Salt Lake Center
Fri 09:21:19 PM 46.6975 -107.3911 281° West 423 487 38,000  Level Salt Lake Center
Fri 09:22:20 PM 46.7217 -107.5811 281° West 425 489 38,000  Level Salt Lake Center
Fri 09:23:22 PM 46.7425 -107.7436 281° West 427 491 38,000  Level Salt Lake Center
Fri 09:24:23 PM 46.7619 -107.9072 280° West 429 494 38,000  Level Salt Lake Center
Fri 09:25:25 PM 46.7858 -108.0969 280° West 427 491 38,000  Level Salt Lake Center
Fri 09:26:26 PM 46.8056 -108.2617 280° West 430 495 38,000  Level Salt Lake Center
Fri 09:27:27 PM 46.8286 -108.4503 280° West 426 490 38,000  Level Salt Lake Center
Fri 09:28:29 PM 46.8478 -108.6150 280° West 428 493 38,000  Level Salt Lake Center
Fri 09:29:30 PM 46.8681 -108.7811 280° West 434 499 38,000  Level Salt Lake Center
Fri 09:30:32 PM 46.8906 -108.9764 280° West 437 503 38,000  Level Salt Lake Center
Fri 09:31:34 PM 46.9106 -109.1439 280° West 438 504 38,000  Level Salt Lake Center
Fri 09:32:35 PM 46.9306 -109.3197 280° West 439 505 38,000 -49 Level Salt Lake Center
Fri 09:33:37 PM 46.9503 -109.4953 279° West 437 503 37,900  Descending Salt Lake Center
Fri 09:34:38 PM 46.9703 -109.6706 280° West 438 504 38,000  Climbing Salt Lake Center
Fri 09:35:40 PM 46.9886 -109.8497 279° West 442 509 37,900  Descending Salt Lake Center
Fri 09:36:41 PM 47.0106 -110.0653 279° West 445 512 38,000  Climbing Salt Lake Center
Fri 09:37:43 PM 47.0289 -110.2467 278° West 449 517 37,900  Descending Salt Lake Center
Fri 09:38:44 PM 47.0478 -110.4286 279° West 451 519 38,000  Climbing Salt Lake Center
Fri 09:39:46 PM 47.0667 -110.6078 279° West 447 514 37,900 -49 Descending Salt Lake Center
Fri 09:40:47 PM 47.0850 -110.7881 279° West 446 513 37,900  Level Salt Lake Center
Fri 09:41:49 PM 47.1028 -110.9703 278° West 449 517 37,900 49 Level Salt Lake Center
Fri 09:42:50 PM 47.1197 -111.1522 278° West 449 517 38,000  Climbing Salt Lake Center
Fri 09:43:52 PM 47.1367 -111.3317 278° West 444 511 37,900  Descending Salt Lake Center
Fri 09:44:54 PM 47.1539 -111.5131 278° West 445 512 38,000  Climbing Salt Lake Center
Fri 09:45:55 PM 47.1725 -111.7306 277° West 446 513 37,900 -49 Descending Salt Lake Center
Fri 09:46:57 PM 47.1894 -111.9117 278° West 446 513 37,900  Level Salt Lake Center
Fri 09:47:58 PM 47.2044 -112.0942 277° West 448 516 37,900  Level Salt Lake Center
Fri 09:49:00 PM 47.2214 -112.2781 278° West 452 520 37,900  Level Salt Lake Center
Fri 09:50:01 PM 47.2358 -112.4608 277° West 451 519 37,900  Level Salt Lake Center
Fri 09:51:03 PM 47.2506 -112.6456 277° West 453 521 37,900 49 Level Salt Lake Center
Fri 09:52:04 PM 47.2661 -112.8297 277° West 453 521 38,000 49 Climbing Salt Lake Center
Fri 09:53:06 PM 47.2817 -113.0192 277° West 457 526 38,000 -49 Level Salt Lake Center
Fri 09:54:07 PM 47.2964 -113.2028 277° West 453 521 37,900  Descending Salt Lake Center
Fri 09:55:09 PM 47.3097 -113.3869 276° West 451 519 38,000  Climbing Salt Lake Center
Fri 09:56:10 PM 47.3269 -113.6103 277° West 457 526 37,900  Descending Salt Lake Center
Fri 09:57:12 PM 47.3394 -113.7953 276° West 455 524 38,000 49 Climbing Salt Lake Center
Fri 09:58:13 PM 47.3528 -113.9792 276° West 452 520 38,000  Level Salt Lake Center
Fri 09:59:15 PM 47.3664 -114.1644 276° West 452 520 38,000 -49 Level Salt Lake Center
Fri 10:00:16 PM 47.3781 -114.3481 275° West 450 518 37,900  Descending Salt Lake Center
Fri 10:01:18 PM 47.3906 -114.5328 276° West 452 520 38,000  Climbing Salt Lake Center
Fri 10:02:19 PM 47.4025 -114.7164 276° West 450 518 37,900  Descending Salt Lake Center
Fri 10:03:06 PM 47.4125 -114.8667 276° West 455 524 38,000  Climbing Seattle Center
Fri 10:04:06 PM 47.4233 -115.0519 275° West 454 522 37,900 -50 Descending Seattle Center
Fri 10:05:07 PM 47.4347 -115.2361 275° West 450 518 37,900 49 Level Seattle Center
Fri 10:06:08 PM 47.4447 -115.4217 275° West 453 521 38,000 49 Climbing Seattle Center
Fri 10:07:09 PM 47.4558 -115.6075 275° West 456 525 38,000 -49 Level Seattle Center
Fri 10:08:10 PM 47.4656 -115.7961 274° West 453 521 37,900  Descending Seattle Center
Fri 10:09:10 PM 47.4778 -115.9808 276° West 453 521 38,000 50 Climbing Seattle Center
Fri 10:10:11 PM 47.4889 -116.1656 275° West 453 521 38,000 -49 Level Seattle Center
Fri 10:11:12 PM 47.4992 -116.3517 275° West 454 522 37,900 -49 Descending Seattle Center
Fri 10:12:13 PM 47.5094 -116.5375 275° West 454 522 37,900  Level Seattle Center
Fri 10:13:14 PM 47.5200 -116.7225 275° West 452 520 37,900  Level Seattle Center
Fri 10:14:15 PM 47.5314 -116.9467 274° West 455 524 37,900 50 Level Seattle Center
Fri 10:15:15 PM 47.5436 -117.1300 276° West 456 525 38,000 50 Climbing Seattle Center
Fri 10:16:16 PM 47.5489 -117.2964 273° West 455 524 38,000 -49 Level Seattle Center
Fri 10:17:17 PM 47.5586 -117.4836 274° West 456 525 37,900 -49 Descending Seattle Center
Fri 10:18:18 PM 47.5694 -117.6717 275° West 457 526 37,900  Level Seattle Center
Fri 10:19:19 PM 47.5881 -117.8600 278° West 462 532 37,900 49 Level Seattle Center
Fri 10:20:20 PM 47.6056 -118.0461 278° West 459 528 38,000 50 Climbing Seattle Center
Fri 10:21:20 PM 47.6256 -118.2703 278° West 459 528 38,000  Level Seattle Center
Fri 10:22:21 PM 47.6414 -118.4561 277° West 458 527 38,000 -49 Level Seattle Center
Fri 10:23:22 PM 47.6583 -118.6436 278° West 459 528 37,900 -49 Descending Seattle Center
Fri 10:24:23 PM 47.6750 -118.8300 278° West 458 527 37,900  Level Seattle Center
Fri 10:25:23 PM 47.6900 -119.0144 277° West 454 522 37,900 50 Level Seattle Center
Fri 10:26:24 PM 47.7050 -119.2011 277° West 454 522 38,000 49 Climbing Seattle Center
Fri 10:27:25 PM 47.7208 -119.3869 277° West 456 525 38,000 -49 Level Seattle Center
Fri 10:28:26 PM 47.7350 -119.5750 276° West 459 528 37,900  Descending Seattle Center
Fri 10:29:27 PM 47.7508 -119.7622 277° West 460 529 38,000 -893 Climbing Seattle Center
Fri 10:30:27 PM 47.7656 -119.9525 277° West 463 533 36,100 -2,479 Descending Seattle Center
Fri 10:31:28 PM 47.7781 -120.1422 276° West 464 534 33,000 -3,197 Descending Seattle Center
Fri 10:32:29 PM 47.7933 -120.3333 277° West 466 536 29,600 -2,951 Descending Seattle Center
Fri 10:33:30 PM 47.8058 -120.5236 276° West 463 533 27,000 -2,557 Descending Seattle Center
Fri 10:34:31 PM 47.8189 -120.7050 276° West 446 513 24,400 -2,727 Descending Seattle Center
Fri 10:35:31 PM 47.8344 -120.9003 277° West 432 497 21,500 -2,628 Descending Seattle Center
Fri 10:36:32 PM 47.8464 -121.0686 276° West 418 481 19,100 -2,545 Descending Seattle Center
Fri 10:37:10 PM 47.8536 -121.1864 275° West 403 464 17,300 -2,361 Descending Seattle Center
Fri 10:37:33 PM 47.8564 -121.2317 275° West 404 465 16,700 -2,000 Descending Seattle Center
Fri 10:38:34 PM 47.8667 -121.3886 276° West 388 447 14,500 -2,033 Descending Seattle Center
Fri 10:39:34 PM 47.8764 -121.5417 275° West 377 434 12,600 -1,680 Descending Seattle Center
Fri 10:39:49 PM 47.8794 -121.5931 275° West 365 420 12,400 -590 Descending Seattle Center
Fri 10:40:35 PM 47.8831 -121.6794 274° West 338 389 12,000 -897 Descending Seattle Center
Fri 10:41:36 PM 47.8231 -121.7903 231° Southwest 292 336 10,800 -984 Descending Seattle Center
Fri 10:42:37 PM 47.7897 -121.8856 243° Southwest 272 313 10,000 -593 Descending Seattle Center
Fri 10:42:57 PM 47.7914 -121.9178 274° West 250 288 10,000 -295 Level Seattle Center
Fri 10:43:38 PM 47.7914 -121.9842 270° West 240 276 9,700 -1,293 Descending Seattle Center
Fri 10:44:53 PM 47.7936 -122.1014 272° West 229 264 7,500 -1,488 Descending Seattle Center
Fri 10:45:39 PM 47.7919 -122.1672 268° West 221 254 6,700 -1,082 Descending Seattle Center
Fri 10:45:54 PM 47.7867 -122.1878 249° West 208 239 6,400 -1,279 Descending Seattle Center
Fri 10:46:40 PM 47.7631 -122.2461 239° Southwest 201 231 5,400 -1,234 Descending Seattle Center
Fri 10:47:41 PM 47.7156 -122.2892 211° Southwest 200 230 4,200 -694 Descending Seattle Center
Fri 10:48:41 PM 47.6633 -122.3067 193° South 202 232 4,000 -160 Descending Seattle Center
Fri 10:48:56 PM 47.6500 -122.3067 180° South 205 236 4,000 -590 Level Seattle Center
Fri 10:49:42 PM 47.6111 -122.3069 180° South 188 216 3,400 -783 Descending Seattle Center

Login

Don't have an account? Register now (free) for customized features, flight alerts, and more!